METAR UND TAF INFORMATION

METAR FOR HEMA
ADDS - METARS form results

(0444 UTC 26 June 2022)
Data provider http://aviationweather.gov/metar/data/
 
Forecast for: HEMA (MARSA ALAM INTL , EG)
Text: TAF HEMA 252300Z 2600/2706 30006G20KT CAVOK
Forecast period: 0000 UTC 26 June 2022 to 0600 UTC 27 June 2022
Forecast type: FROM: standard forecast or significant change
Winds: from the WNW (300 degrees) at 7 MPH (6 knots; 3.1 m/s)
gusting to 23 MPH (20 knots; 10.3 m/s)
Visibility: 6 or more miles (10+ km)
Ceiling: unknown
Clouds: missing
Weather: NSW  (no significant weather)

 FLUGHAFENKARTE

 RUNWAY INFORMATION
Runway 15 Runway length 9843 ft Runway width 148 ft
Runway elevation 247 ft Runway displaced threshold 0 ft Runway heading 150
Runway 33 Runway length 9843 ft Runway width 148 ft
Runway elevation 233 ft Runway displaced threshold 0 ft Runway heading 330

 AIRPORT FREQUENCIES
Type APP Name APP Frequency 121 MHZ
Type EMR Name FIRE Frequency 121.9 MHZ
Type GND Name GND Frequency 121.9 MHZ
Type TWR Name TWR Frequency 121 MHZ

 AIRPORT NEAR NAVIGATION AIDS
Type VOR-DME Name Marsa Alam Frequency 115500 KHZ